Time;durP1;ratioP1;P1;durP2;ratioP2;P2;SDS_P1;SDS_P2;PMS_P1;PMS_P2;Temp;Humidity;BMP_temperature;BMP_pressure;BME280_temperature;BME280_humidity;BME280_pressure;Samples;Min_cycle;Max_cycle;Signal;HPM_P1;HPM_P2
2023/07/17 00:00:25;;;;;;;;;4.00;4.00;;;;;;;;4955685;28;45662;-77
2023/07/17 00:02:50;;;;;;;;;20.00;16.67;;;;;;;;4951427;28;45498;-78
2023/07/17 00:05:16;;;;;;;;;14.33;8.33;;;;;;;;4952378;28;45588;-78
2023/07/17 00:07:41;;;;;;;;;6.00;6.00;;;;;;;;4952172;28;47206;-79
2023/07/17 00:10:10;;;;;;;;;7.00;5.33;;;;;;;;4971607;28;45821;-80
2023/07/17 00:12:36;;;;;;;;;9.00;8.00;;;;;;;;4977371;28;45837;-81
2023/07/17 00:15:05;;;;;;;;;13.67;12.67;;;;;;;;4955123;28;46658;-80
2023/07/17 00:17:30;;;;;;;;;5.67;5.67;;;;;;;;4955628;28;48171;-80
2023/07/17 00:19:56;;;;;;;;;28.33;19.67;;;;;;;;4970276;28;45552;-78
2023/07/17 00:22:21;;;;;;;;;22.00;19.50;;;;;;;;4972425;28;45828;-79
2023/07/17 00:24:47;;;;;;;;;7.67;6.00;;;;;;;;4972045;28;45796;-80
2023/07/17 00:27:12;;;;;;;;;17.00;12.00;;;;;;;;4971390;28;46043;-79
2023/07/17 00:29:40;;;;;;;;;21.67;19.33;;;;;;;;4954540;28;45550;-80
2023/07/17 00:32:05;;;;;;;;;22.67;19.67;;;;;;;;4954394;28;45758;-80
2023/07/17 00:34:31;;;;;;;;;7.00;6.33;;;;;;;;4953598;28;45928;-80
2023/07/17 00:36:56;;;;;;;;;29.33;25.00;;;;;;;;4972171;28;46259;-79
2023/07/17 00:39:23;;;;;;;;;13.67;8.00;;;;;;;;4971844;28;45733;-78
2023/07/17 00:41:49;;;;;;;;;20.67;18.00;;;;;;;;4973357;28;45483;-78
2023/07/17 00:44:14;;;;;;;;;6.33;6.33;;;;;;;;4971627;28;45916;-78
2023/07/17 00:46:43;;;;;;;;;10.00;7.67;;;;;;;;4973671;28;46516;-81
2023/07/17 00:49:09;;;;;;;;;10.33;9.33;;;;;;;;4956647;28;45450;-78
2023/07/17 00:51:36;;;;;;;;;13.33;11.00;;;;;;;;4955883;28;45929;-78
2023/07/17 00:54:01;;;;;;;;;6.00;6.00;;;;;;;;4985758;28;45421;-79
2023/07/17 00:56:29;;;;;;;;;14.67;12.67;;;;;;;;4958677;28;47702;-78
2023/07/17 00:58:55;;;;;;;;;9.33;8.67;;;;;;;;4959162;28;45477;-77
2023/07/17 01:01:21;;;;;;;;;3.33;3.00;;;;;;;;4985521;28;46127;-78
2023/07/17 01:03:47;;;;;;;;;4.33;3.00;;;;;;;;4975473;28;45745;-78
2023/07/17 01:06:12;;;;;;;;;10.00;7.33;;;;;;;;4972499;28;45620;-79
2023/07/17 01:08:37;;;;;;;;;10.67;9.00;;;;;;;;4967909;28;45702;-80
2023/07/17 01:11:02;;;;;;;;;7.33;5.00;;;;;;;;4958653;28;45467;-80
2023/07/17 01:13:28;;;;;;;;;11.67;10.67;;;;;;;;4956419;28;45984;-79
2023/07/17 01:15:53;;;;;;;;;16.67;13.33;;;;;;;;4978630;28;45487;-79
2023/07/17 01:18:18;;;;;;;;;16.33;10.67;;;;;;;;4961420;28;45587;-81
2023/07/17 01:20:44;;;;;;;;;18.33;12.00;;;;;;;;4958094;28;45699;-81
2023/07/17 01:23:09;;;;;;;;;12.00;9.00;;;;;;;;4987194;28;46073;-81
2023/07/17 01:25:34;;;;;;;;;4.00;4.00;;;;;;;;4975084;28;46479;-80
2023/07/17 01:28:00;;;;;;;;;12.67;8.67;;;;;;;;4987864;28;46003;-79
2023/07/17 01:30:25;;;;;;;;;6.33;6.00;;;;;;;;4956485;28;45915;-79
2023/07/17 01:32:51;;;;;;;;;10.33;6.67;;;;;;;;4987208;28;45585;-79
2023/07/17 01:35:16;;;;;;;;;5.67;4.00;;;;;;;;4974695;28;45883;-78
2023/07/17 01:37:42;;;;;;;;;10.00;10.00;;;;;;;;4973359;28;45491;-80
2023/07/17 01:40:08;;;;;;;;;2.33;2.33;;;;;;;;4975313;28;45396;-80
2023/07/17 01:42:34;;;;;;;;;4.33;3.00;;;;;;;;4975304;28;45748;-78
2023/07/17 01:44:59;;;;;;;;;6.00;3.00;;;;;;;;4957841;28;46715;-79
2023/07/17 01:47:26;;;;;;;;;9.00;5.33;;;;;;;;4974158;28;45839;-79
2023/07/17 01:49:51;;;;;;;;;7.67;6.00;;;;;;;;4948923;28;45902;-78
2023/07/17 01:52:17;;;;;;;;;4.00;4.00;;;;;;;;4972751;28;45772;-78
2023/07/17 01:54:43;;;;;;;;;5.33;5.00;;;;;;;;4992725;28;45884;-79
2023/07/17 01:57:08;;;;;;;;;5.00;4.67;;;;;;;;4978405;28;45449;-78
2023/07/17 01:59:33;;;;;;;;;4.33;4.00;;;;;;;;4958055;28;45639;-78
2023/07/17 02:02:00;;;;;;;;;3.67;3.67;;;;;;;;4941468;28;46089;-79
2023/07/17 02:04:25;;;;;;;;;3.00;3.00;;;;;;;;4968290;28;46358;-79
2023/07/17 02:06:51;;;;;;;;;5.67;4.67;;;;;;;;4965520;28;45833;-80
2023/07/17 02:09:16;;;;;;;;;4.00;2.00;;;;;;;;4978096;28;45979;-80
2023/07/17 02:11:41;;;;;;;;;4.00;3.00;;;;;;;;4993533;28;45920;-79
2023/07/17 02:14:07;;;;;;;;;8.67;2.33;;;;;;;;4979057;28;45818;-79
2023/07/17 02:16:32;;;;;;;;;5.00;4.00;;;;;;;;4974249;28;45881;-80
2023/07/17 02:18:57;;;;;;;;;4.33;3.33;;;;;;;;4974003;28;45739;-79
2023/07/17 02:21:22;;;;;;;;;2.33;2.00;;;;;;;;4957034;28;45743;-77
2023/07/17 02:23:48;;;;;;;;;4.00;4.00;;;;;;;;4978590;28;45613;-81
2023/07/17 02:26:13;;;;;;;;;1.67;1.67;;;;;;;;4974989;28;45814;-78
2023/07/17 02:28:39;;;;;;;;;3.67;3.00;;;;;;;;4955410;28;45851;-78
2023/07/17 02:31:04;;;;;;;;;3.33;1.33;;;;;;;;4973871;28;45448;-80
2023/07/17 02:33:29;;;;;;;;;4.00;2.33;;;;;;;;4945216;28;45514;-77
2023/07/17 02:35:54;;;;;;;;;5.00;2.67;;;;;;;;4960699;28;45815;-78
2023/07/17 02:38:20;;;;;;;;;2.00;2.00;;;;;;;;4961250;28;45767;-77
2023/07/17 02:40:45;;;;;;;;;2.33;1.00;;;;;;;;4973815;28;45810;-76
2023/07/17 02:43:10;;;;;;;;;1.67;1.67;;;;;;;;4973869;28;46514;-78
2023/07/17 02:45:36;;;;;;;;;1.00;1.00;;;;;;;;4957502;28;45416;-77
2023/07/17 02:48:03;;;;;;;;;1.67;1.67;;;;;;;;4975062;28;45517;-78
2023/07/17 02:50:28;;;;;;;;;3.33;3.33;;;;;;;;4957183;28;45846;-77
2023/07/17 02:52:54;;;;;;;;;1.67;1.67;;;;;;;;4958275;28;48060;-79
2023/07/17 02:55:19;;;;;;;;;3.67;2.00;;;;;;;;4976546;28;45951;-79
2023/07/17 02:57:44;;;;;;;;;2.67;1.67;;;;;;;;4977794;28;45449;-78
2023/07/17 03:00:14;;;;;;;;;2.00;2.00;;;;;;;;4956775;28;46059;-79
2023/07/17 03:02:40;;;;;;;;;1.00;1.00;;;;;;;;4956252;28;47236;-78
2023/07/17 03:05:09;;;;;;;;;2.00;2.00;;;;;;;;4983523;28;45900;-77
2023/07/17 03:07:35;;;;;;;;;2.33;2.33;;;;;;;;4954287;28;45390;-78
2023/07/17 03:10:00;;;;;;;;;3.00;2.00;;;;;;;;4957793;28;45687;-78
2023/07/17 03:12:26;;;;;;;;;2.00;2.00;;;;;;;;4985774;28;46008;-78
2023/07/17 03:14:51;;;;;;;;;2.33;2.33;;;;;;;;4962219;28;45349;-79
2023/07/17 03:17:16;;;;;;;;;4.33;4.00;;;;;;;;4958253;28;45408;-77
2023/07/17 03:19:42;;;;;;;;;3.00;3.00;;;;;;;;4981109;28;45268;-77
2023/07/17 03:22:07;;;;;;;;;3.67;2.00;;;;;;;;4957060;28;47019;-79
2023/07/17 03:24:36;;;;;;;;;2.00;2.00;;;;;;;;4975448;28;45364;-79
2023/07/17 03:27:01;;;;;;;;;1.67;1.67;;;;;;;;4957430;28;45846;-78
2023/07/17 03:29:26;;;;;;;;;1.00;1.00;;;;;;;;4972600;28;45656;-79
2023/07/17 03:31:53;;;;;;;;;3.67;3.33;;;;;;;;4972940;28;45808;-77
2023/07/17 03:34:18;;;;;;;;;2.00;2.00;;;;;;;;4974536;28;45530;-80
2023/07/17 03:36:43;;;;;;;;;3.33;2.33;;;;;;;;4989071;28;45763;-80
2023/07/17 03:39:09;;;;;;;;;1.67;1.33;;;;;;;;4979967;28;46146;-79
2023/07/17 03:41:34;;;;;;;;;1.00;1.00;;;;;;;;4980828;28;45739;-80
2023/07/17 03:44:01;;;;;;;;;3.00;0.00;;;;;;;;4964478;28;45977;-80
2023/07/17 03:46:27;;;;;;;;;1.00;1.00;;;;;;;;4965248;28;45715;-80
2023/07/17 03:48:52;;;;;;;;;3.00;2.00;;;;;;;;4963845;28;46053;-80
2023/07/17 03:51:17;;;;;;;;;3.00;2.00;;;;;;;;4976932;28;45756;-81
2023/07/17 03:53:43;;;;;;;;;1.67;1.67;;;;;;;;4958798;28;45532;-80
2023/07/17 03:56:08;;;;;;;;;2.00;2.00;;;;;;;;4974426;28;45884;-79
2023/07/17 03:58:33;;;;;;;;;2.00;1.00;;;;;;;;4974578;28;45425;-81
2023/07/17 04:00:58;;;;;;;;;1.00;1.00;;;;;;;;4981068;28;45391;-79
2023/07/17 04:03:24;;;;;;;;;2.00;1.00;;;;;;;;4948331;28;45513;-80
2023/07/17 04:05:49;;;;;;;;;1.67;1.00;;;;;;;;4972382;28;45424;-80
2023/07/17 04:08:15;;;;;;;;;1.67;1.33;;;;;;;;4982177;28;45863;-81
2023/07/17 04:10:40;;;;;;;;;2.00;2.00;;;;;;;;4965098;28;47074;-81
2023/07/17 04:13:05;;;;;;;;;1.00;1.00;;;;;;;;4971820;28;45724;-80
2023/07/17 04:15:30;;;;;;;;;1.00;0.00;;;;;;;;4970942;28;46006;-81
2023/07/17 04:17:56;;;;;;;;;3.00;0.00;;;;;;;;4971850;28;45894;-80
2023/07/17 04:20:21;;;;;;;;;2.67;1.00;;;;;;;;4970681;28;45498;-81
2023/07/17 04:22:46;;;;;;;;;4.67;2.00;;;;;;;;4979578;28;45722;-80
2023/07/17 04:25:12;;;;;;;;;0.33;0.00;;;;;;;;4974146;28;45396;-81
2023/07/17 04:27:37;;;;;;;;;3.00;3.00;;;;;;;;4958089;28;47064;-80
2023/07/17 04:30:02;;;;;;;;;5.67;2.67;;;;;;;;4949401;28;46001;-81
2023/07/17 04:32:28;;;;;;;;;7.00;3.00;;;;;;;;4951622;28;45731;-80
2023/07/17 04:34:53;;;;;;;;;15.67;13.33;;;;;;;;4949919;28;45947;-80
2023/07/17 04:37:20;;;;;;;;;2.00;2.00;;;;;;;;4950730;28;45886;-80
2023/07/17 04:39:45;;;;;;;;;5.00;4.00;;;;;;;;4952904;28;46799;-81
2023/07/17 04:42:11;;;;;;;;;6.33;2.33;;;;;;;;4953687;28;45399;-82
2023/07/17 04:44:36;;;;;;;;;10.00;8.00;;;;;;;;4954701;28;45706;-82
2023/07/17 04:47:01;;;;;;;;;6.00;3.67;;;;;;;;4957514;28;47154;-80
2023/07/17 04:49:26;;;;;;;;;3.00;3.00;;;;;;;;4966259;28;47914;-80
2023/07/17 04:51:52;;;;;;;;;2.33;1.33;;;;;;;;4963616;28;45428;-83
2023/07/17 04:54:17;;;;;;;;;3.33;3.33;;;;;;;;4953738;28;45719;-80
2023/07/17 04:56:42;;;;;;;;;3.67;3.67;;;;;;;;4955888;28;45699;-82
2023/07/17 04:59:08;;;;;;;;;2.67;2.67;;;;;;;;4952579;28;46990;-80
2023/07/17 05:01:33;;;;;;;;;4.75;3.50;;;;;;;;4964217;28;45558;-79
2023/07/17 05:03:58;;;;;;;;;2.00;1.00;;;;;;;;4951642;28;45410;-80
2023/07/17 05:06:24;;;;;;;;;2.00;1.00;;;;;;;;4945820;28;45540;-80
2023/07/17 05:08:49;;;;;;;;;2.00;1.00;;;;;;;;4957977;28;46140;-81
2023/07/17 05:11:17;;;;;;;;;2.25;2.25;;;;;;;;4948002;28;46150;-81
2023/07/17 05:13:43;;;;;;;;;2.00;2.00;;;;;;;;4941719;28;45906;-81
2023/07/17 05:16:08;;;;;;;;;4.00;1.50;;;;;;;;4937969;28;45884;-81
2023/07/17 05:18:45;;;;;;;;;3.25;3.25;;;;;;;;4947539;28;45878;-81
2023/07/17 05:21:11;;;;;;;;;1.50;1.50;;;;;;;;4951945;28;45560;-80
2023/07/17 05:23:37;;;;;;;;;3.00;3.00;;;;;;;;4946307;28;45693;-81
2023/07/17 05:26:03;;;;;;;;;2.75;1.00;;;;;;;;4945703;28;45894;-81
2023/07/17 05:28:29;;;;;;;;;1.75;1.75;;;;;;;;4943962;28;46196;-79
2023/07/17 05:30:57;;;;;;;;;4.00;1.00;;;;;;;;4939839;28;45798;-80
2023/07/17 05:33:49;;;;;;;;;1.00;1.00;;;;;;;;4952421;28;45823;-80
2023/07/17 05:36:26;;;;;;;;;2.00;1.00;;;;;;;;4958997;28;45610;-80
2023/07/17 05:38:52;;;;;;;;;1.75;0.00;;;;;;;;4970804;28;46575;-81
2023/07/17 05:41:18;;;;;;;;;1.75;1.00;;;;;;;;4979736;28;45736;-79
2023/07/17 05:43:44;;;;;;;;;1.25;1.00;;;;;;;;4968326;28;45844;-73
2023/07/17 05:46:10;;;;;;;;;3.00;2.00;;;;;;;;4960543;28;45681;-72
2023/07/17 05:48:35;;;;;;;;;1.75;1.00;;;;;;;;4960350;28;47004;-71
2023/07/17 05:51:04;;;;;;;;;4.00;1.75;;;;;;;;4947909;28;45946;-76
2023/07/17 05:53:29;;;;;;;;;1.75;1.00;;;;;;;;4948188;28;45535;-72
2023/07/17 05:55:54;;;;;;;;;0.75;0.75;;;;;;;;4968376;28;45930;-71
2023/07/17 05:58:20;;;;;;;;;2.00;1.00;;;;;;;;4970477;28;46111;-72
2023/07/17 06:00:46;;;;;;;;;1.00;1.00;;;;;;;;4952595;28;45965;-72
2023/07/17 06:03:11;;;;;;;;;1.50;1.00;;;;;;;;4965481;28;45988;-72
2023/07/17 06:05:37;;;;;;;;;0.75;0.75;;;;;;;;4966640;28;47239;-72
2023/07/17 06:08:08;;;;;;;;;3.50;1.25;;;;;;;;4968203;28;45968;-73
2023/07/17 06:10:34;;;;;;;;;0.20;0.20;;;;;;;;4967743;28;45475;-72
2023/07/17 06:12:59;;;;;;;;;0.75;0.75;;;;;;;;4961805;28;45687;-72
2023/07/17 06:15:27;;;;;;;;;1.00;1.00;;;;;;;;4965930;28;45880;-71
2023/07/17 06:17:52;;;;;;;;;1.50;1.00;;;;;;;;4950744;28;47247;-70
2023/07/17 06:20:20;;;;;;;;;1.00;1.00;;;;;;;;4950236;28;45734;-72
2023/07/17 06:22:45;;;;;;;;;1.50;1.00;;;;;;;;4965558;28;45875;-72
2023/07/17 06:25:13;;;;;;;;;1.00;1.00;;;;;;;;4958152;28;45742;-72
2023/07/17 06:27:39;;;;;;;;;0.25;0.25;;;;;;;;4962881;28;45739;-73
2023/07/17 06:30:04;;;;;;;;;0.00;0.00;;;;;;;;4957028;28;46269;-72
2023/07/17 06:32:29;;;;;;;;;1.00;1.00;;;;;;;;4969287;28;45536;-72
2023/07/17 06:34:55;;;;;;;;;0.25;0.25;;;;;;;;4953170;28;46928;-73
2023/07/17 06:37:20;;;;;;;;;2.00;1.00;;;;;;;;4965035;28;46123;-71
2023/07/17 06:39:47;;;;;;;;;3.25;1.00;;;;;;;;4962884;28;45579;-72
2023/07/17 06:42:12;;;;;;;;;2.25;2.00;;;;;;;;4970409;28;46041;-73
2023/07/17 06:44:37;;;;;;;;;2.50;1.00;;;;;;;;4953985;28;46002;-73
2023/07/17 06:47:02;;;;;;;;;1.25;1.00;;;;;;;;4972272;28;45921;-74
2023/07/17 06:49:28;;;;;;;;;0.00;0.00;;;;;;;;4969470;28;45585;-74
2023/07/17 06:51:53;;;;;;;;;2.25;1.25;;;;;;;;4970820;28;45464;-73
2023/07/17 06:54:18;;;;;;;;;3.00;3.00;;;;;;;;4969267;28;46019;-74
2023/07/17 06:56:43;;;;;;;;;2.00;1.00;;;;;;;;4949355;28;47090;-72
2023/07/17 06:59:09;;;;;;;;;2.00;2.00;;;;;;;;4972886;28;45607;-72
2023/07/17 07:01:34;;;;;;;;;2.00;1.00;;;;;;;;4967787;28;45865;-73
2023/07/17 07:03:59;;;;;;;;;0.25;0.00;;;;;;;;4962354;28;45923;-73
2023/07/17 07:06:24;;;;;;;;;3.00;0.50;;;;;;;;4962051;28;46012;-74
2023/07/17 07:08:49;;;;;;;;;1.00;1.00;;;;;;;;4954129;28;45567;-72
2023/07/17 07:11:15;;;;;;;;;0.50;0.50;;;;;;;;4970482;28;45577;-73
2023/07/17 07:13:42;;;;;;;;;1.50;1.00;;;;;;;;4951528;28;46108;-74
2023/07/17 07:16:07;;;;;;;;;0.75;0.00;;;;;;;;4952464;28;46126;-72
2023/07/17 07:18:32;;;;;;;;;2.00;1.00;;;;;;;;4967674;28;45919;-72
2023/07/17 07:20:58;;;;;;;;;0.25;0.00;;;;;;;;4970876;28;45833;-74
2023/07/17 07:23:23;;;;;;;;;1.00;0.75;;;;;;;;4970593;28;46723;-72
2023/07/17 07:25:48;;;;;;;;;1.75;1.75;;;;;;;;4944121;28;48035;-80
2023/07/17 07:28:14;;;;;;;;;2.00;2.00;;;;;;;;4937693;28;45433;-80
2023/07/17 07:30:39;;;;;;;;;1.25;1.25;;;;;;;;4947496;28;45835;-81
2023/07/17 07:33:05;;;;;;;;;0.75;0.75;;;;;;;;4945481;28;47077;-80
2023/07/17 07:35:30;;;;;;;;;3.25;0.00;;;;;;;;4936023;28;47201;-81
2023/07/17 07:37:56;;;;;;;;;1.75;1.00;;;;;;;;4952574;28;45554;-80
2023/07/17 07:40:21;;;;;;;;;0.75;0.75;;;;;;;;4953298;28;45483;-81
2023/07/17 07:42:46;;;;;;;;;2.00;2.00;;;;;;;;4949459;28;45482;-80
2023/07/17 07:45:12;;;;;;;;;1.25;1.25;;;;;;;;4950955;28;45680;-82
2023/07/17 07:47:38;;;;;;;;;2.25;0.75;;;;;;;;4936754;28;45580;-79
2023/07/17 07:50:04;;;;;;;;;2.00;2.00;;;;;;;;4951077;28;45753;-81
2023/07/17 07:52:29;;;;;;;;;1.75;1.75;;;;;;;;4936500;28;46647;-80
2023/07/17 07:54:55;;;;;;;;;1.00;1.00;;;;;;;;4953107;28;45925;-80
2023/07/17 07:57:20;;;;;;;;;0.00;0.00;;;;;;;;4953560;28;45676;-81
2023/07/17 07:59:45;;;;;;;;;2.25;1.00;;;;;;;;4952925;28;45414;-80
2023/07/17 08:02:11;;;;;;;;;1.50;0.75;;;;;;;;4953372;28;46030;-80
2023/07/17 08:04:37;;;;;;;;;2.00;1.00;;;;;;;;4956146;28;45456;-82
2023/07/17 08:07:03;;;;;;;;;6.25;2.75;;;;;;;;4945037;28;45503;-80
2023/07/17 08:09:28;;;;;;;;;1.25;1.25;;;;;;;;4942684;28;45486;-81
2023/07/17 08:11:54;;;;;;;;;1.00;1.00;;;;;;;;4949790;28;45535;-80
2023/07/17 08:14:21;;;;;;;;;1.75;1.00;;;;;;;;4940122;28;45834;-79
2023/07/17 08:16:47;;;;;;;;;0.25;0.25;;;;;;;;4946202;28;45903;-80
2023/07/17 08:19:13;;;;;;;;;2.75;2.75;;;;;;;;4936673;28;45496;-79
2023/07/17 08:21:38;;;;;;;;;1.00;0.00;;;;;;;;4943208;28;45501;-80
2023/07/17 08:24:03;;;;;;;;;0.75;0.75;;;;;;;;4950155;28;46996;-81
2023/07/17 08:26:29;;;;;;;;;1.00;1.00;;;;;;;;4954127;28;45484;-81
2023/07/17 08:28:54;;;;;;;;;0.25;0.25;;;;;;;;4970097;28;45586;-79
2023/07/17 08:31:19;;;;;;;;;0.50;0.50;;;;;;;;4965111;28;46038;-80
2023/07/17 08:33:45;;;;;;;;;1.50;1.00;;;;;;;;4970142;28;46093;-81
2023/07/17 08:36:10;;;;;;;;;1.50;1.00;;;;;;;;4960106;28;45487;-81
2023/07/17 08:38:37;;;;;;;;;1.00;1.00;;;;;;;;4967475;28;45813;-81
2023/07/17 08:41:02;;;;;;;;;1.00;1.00;;;;;;;;4974079;28;45490;-79
2023/07/17 08:43:27;;;;;;;;;1.75;1.00;;;;;;;;4976578;28;45381;-80
2023/07/17 08:45:53;;;;;;;;;0.75;0.00;;;;;;;;4951300;28;45973;-82
2023/07/17 08:48:19;;;;;;;;;1.25;1.00;;;;;;;;4949727;28;45789;-81
2023/07/17 08:50:45;;;;;;;;;1.00;1.00;;;;;;;;4967792;28;46198;-82
2023/07/17 08:53:11;;;;;;;;;1.25;1.00;;;;;;;;4970283;28;46085;-80
2023/07/17 08:55:36;;;;;;;;;0.75;0.75;;;;;;;;4949713;28;45563;-81
2023/07/17 08:58:05;;;;;;;;;3.50;1.25;;;;;;;;4959542;28;45994;-80
2023/07/17 09:00:32;;;;;;;;;2.50;1.75;;;;;;;;4966224;28;45927;-79
2023/07/17 09:02:57;;;;;;;;;2.75;1.75;;;;;;;;4964872;28;45745;-87
2023/07/17 09:05:23;;;;;;;;;1.75;1.75;;;;;;;;4970315;28;45506;-81
2023/07/17 09:07:48;;;;;;;;;0.25;0.25;;;;;;;;4962978;28;45763;-81
2023/07/17 09:10:20;;;;;;;;;0.00;0.00;;;;;;;;4962666;28;46597;-80
2023/07/17 09:12:54;;;;;;;;;2.00;1.25;;;;;;;;4960618;28;47895;-80
2023/07/17 09:15:20;;;;;;;;;1.50;0.00;;;;;;;;4956676;28;45843;-79
2023/07/17 09:17:45;;;;;;;;;0.75;0.75;;;;;;;;4974616;28;46236;-79
2023/07/17 09:20:11;;;;;;;;;1.00;1.00;;;;;;;;4981838;28;45558;-81
2023/07/17 09:22:40;;;;;;;;;4.00;1.75;;;;;;;;4965369;28;48241;-81
2023/07/17 09:25:06;;;;;;;;;2.25;2.25;;;;;;;;4964487;28;45975;-81
2023/07/17 09:27:47;;;;;;;;;2.50;2.50;;;;;;;;4954717;28;45884;-80
2023/07/17 09:30:13;;;;;;;;;3.00;3.00;;;;;;;;4976792;28;45775;-80
2023/07/17 09:32:39;;;;;;;;;1.00;0.75;;;;;;;;4975920;28;45729;-81
2023/07/17 09:35:05;;;;;;;;;3.00;2.00;;;;;;;;4941166;28;45798;-81
2023/07/17 09:37:31;;;;;;;;;5.00;1.25;;;;;;;;4959689;28;45513;-80
2023/07/17 09:39:58;;;;;;;;;1.00;1.00;;;;;;;;4976636;28;45908;-80
2023/07/17 09:42:23;;;;;;;;;1.00;1.00;;;;;;;;4959818;28;46193;-80
2023/07/17 09:44:50;;;;;;;;;1.50;1.50;;;;;;;;4977485;28;45563;-79
2023/07/17 09:47:16;;;;;;;;;3.25;2.00;;;;;;;;4955081;28;45952;-80
2023/07/17 09:49:46;;;;;;;;;0.00;0.00;;;;;;;;4969648;28;46416;-81
2023/07/17 09:52:11;;;;;;;;;2.25;1.75;;;;;;;;4957968;28;46490;-79
2023/07/17 09:54:38;;;;;;;;;0.75;0.75;;;;;;;;4970495;28;45883;-83
2023/07/17 09:57:04;;;;;;;;;1.50;1.50;;;;;;;;4968405;28;46595;-81
2023/07/17 09:59:31;;;;;;;;;1.75;1.75;;;;;;;;4965487;28;45771;-82
2023/07/17 10:01:59;;;;;;;;;4.75;4.75;;;;;;;;4967502;28;45818;-81
2023/07/17 10:04:37;;;;;;;;;3.25;2.75;;;;;;;;4968400;28;45943;-82
2023/07/17 10:07:03;;;;;;;;;2.00;1.00;;;;;;;;4963172;28;45845;-82
2023/07/17 10:09:29;;;;;;;;;12.67;12.67;;;;;;;;4963437;28;45918;-80
2023/07/17 10:11:54;;;;;;;;;4.25;4.25;;;;;;;;4962521;28;45615;-78
2023/07/17 10:14:20;;;;;;;;;4.00;2.00;;;;;;;;4973608;28;45730;-81
2023/07/17 10:16:45;;;;;;;;;3.50;2.00;;;;;;;;4965693;28;45499;-81
2023/07/17 10:19:11;;;;;;;;;6.00;5.50;;;;;;;;4969340;28;46195;-81
2023/07/17 10:21:51;;;;;;;;;2.75;1.00;;;;;;;;4966531;28;45958;-82
2023/07/17 10:24:16;;;;;;;;;3.00;2.00;;;;;;;;4970376;28;45767;-81
2023/07/17 10:26:45;;;;;;;;;2.25;2.25;;;;;;;;4972111;28;45715;-80
2023/07/17 10:29:10;;;;;;;;;0.75;0.75;;;;;;;;4954300;28;45626;-80
2023/07/17 10:31:47;;;;;;;;;1.50;0.50;;;;;;;;4971944;28;45806;-82
2023/07/17 10:34:12;;;;;;;;;1.00;1.00;;;;;;;;4969992;28;47043;-81
2023/07/17 10:36:42;;;;;;;;;0.00;0.00;;;;;;;;4971330;28;45380;-82
2023/07/17 10:39:07;;;;;;;;;2.25;2.00;;;;;;;;4964348;28;45659;-80
2023/07/17 10:41:35;;;;;;;;;1.50;1.00;;;;;;;;4970428;28;46198;-78
2023/07/17 10:44:03;;;;;;;;;1.00;1.00;;;;;;;;4968913;28;45484;-81
2023/07/17 10:46:29;;;;;;;;;1.25;0.75;;;;;;;;4962887;28;45417;-79
2023/07/17 10:49:04;;;;;;;;;2.75;1.50;;;;;;;;4961183;28;46624;-80
2023/07/17 10:51:29;;;;;;;;;1.00;1.00;;;;;;;;4968260;28;45662;-82
2023/07/17 10:53:54;;;;;;;;;1.00;1.00;;;;;;;;4956768;28;45495;-81
2023/07/17 10:56:20;;;;;;;;;0.50;0.50;;;;;;;;4955807;28;45935;-83
2023/07/17 10:58:49;;;;;;;;;2.00;1.00;;;;;;;;4956481;28;46080;-79
2023/07/17 11:01:15;;;;;;;;;3.50;3.50;;;;;;;;4974128;28;45538;-79
2023/07/17 11:03:42;;;;;;;;;2.25;1.75;;;;;;;;4971686;28;45888;-83
2023/07/17 11:06:11;;;;;;;;;2.25;1.50;;;;;;;;4953700;28;46160;-80
2023/07/17 11:08:36;;;;;;;;;2.50;1.00;;;;;;;;4956639;28;45835;-83
2023/07/17 11:11:01;;;;;;;;;11.33;10.67;;;;;;;;4951472;28;46847;-82
2023/07/17 11:13:31;;;;;;;;;4.00;3.50;;;;;;;;4970554;28;45515;-82
2023/07/17 11:16:04;;;;;;;;;2.25;2.25;;;;;;;;4963938;28;45559;-80
2023/07/17 11:18:29;;;;;;;;;1.00;1.00;;;;;;;;4950323;28;45939;-82
2023/07/17 11:20:55;;;;;;;;;2.75;1.00;;;;;;;;4968598;28;45796;-80
2023/07/17 11:23:20;;;;;;;;;0.50;0.50;;;;;;;;4959330;28;45818;-81
2023/07/17 11:25:45;;;;;;;;;1.00;1.00;;;;;;;;4972290;28;45396;-81
2023/07/17 11:28:10;;;;;;;;;0.75;0.75;;;;;;;;4954077;28;45872;-79
2023/07/17 11:30:36;;;;;;;;;1.75;1.00;;;;;;;;4967837;28;45897;-82
2023/07/17 11:33:02;;;;;;;;;1.00;1.00;;;;;;;;4964348;28;45758;-82
2023/07/17 11:35:48;;;;;;;;;0.50;0.25;;;;;;;;4963756;28;45428;-82
2023/07/17 11:38:14;;;;;;;;;0.50;0.50;;;;;;;;4973447;28;45498;-80
2023/07/17 11:40:55;;;;;;;;;4.25;2.75;;;;;;;;4975892;28;45709;-81
2023/07/17 11:43:25;;;;;;;;;2.00;2.00;;;;;;;;4970022;28;45991;-79
2023/07/17 11:45:50;;;;;;;;;2.00;0.75;;;;;;;;4953859;28;45588;-79
2023/07/17 11:48:17;;;;;;;;;3.50;2.25;;;;;;;;4973324;28;46028;-80
2023/07/17 11:50:42;;;;;;;;;0.00;0.00;;;;;;;;4969666;28;46260;-81
2023/07/17 11:53:10;;;;;;;;;1.50;1.50;;;;;;;;4973241;28;45447;-78
2023/07/17 11:55:40;;;;;;;;;2.25;1.50;;;;;;;;4977484;28;45448;-80
2023/07/17 11:58:16;;;;;;;;;1.25;0.25;;;;;;;;4954608;28;45601;-81
2023/07/17 12:00:42;;;;;;;;;0.25;0.25;;;;;;;;4962031;28;48490;-79
2023/07/17 12:03:07;;;;;;;;;1.00;1.00;;;;;;;;4971010;28;45727;-80
2023/07/17 12:05:32;;;;;;;;;0.00;0.00;;;;;;;;4973252;28;45978;-79
2023/07/17 12:07:58;;;;;;;;;0.75;0.50;;;;;;;;4971584;28;45806;-80
2023/07/17 12:10:24;;;;;;;;;0.50;0.25;;;;;;;;4973882;28;45817;-78
2023/07/17 12:12:49;;;;;;;;;2.25;1.00;;;;;;;;4953501;28;45652;-80
2023/07/17 12:15:14;;;;;;;;;0.00;0.00;;;;;;;;4972822;28;45781;-80
2023/07/17 12:17:40;;;;;;;;;1.00;1.00;;;;;;;;4974235;28;45538;-81
2023/07/17 12:20:05;;;;;;;;;1.00;1.00;;;;;;;;4960508;28;46183;-81
2023/07/17 12:22:31;;;;;;;;;1.00;1.00;;;;;;;;4966394;28;45479;-81
2023/07/17 12:24:56;;;;;;;;;1.00;1.00;;;;;;;;4974154;28;45786;-80
2023/07/17 12:27:21;;;;;;;;;1.50;1.50;;;;;;;;4974556;28;45593;-80
2023/07/17 12:29:46;;;;;;;;;2.00;1.00;;;;;;;;4976605;28;45601;-80
2023/07/17 12:32:12;;;;;;;;;0.00;0.00;;;;;;;;4957461;28;45536;-79
2023/07/17 12:34:37;;;;;;;;;2.75;0.50;;;;;;;;4958932;28;46046;-80
2023/07/17 12:37:03;;;;;;;;;2.00;0.00;;;;;;;;4976916;28;45601;-78
2023/07/17 12:39:29;;;;;;;;;2.00;1.00;;;;;;;;4975779;28;46181;-79
2023/07/17 12:41:54;;;;;;;;;0.75;0.50;;;;;;;;4957874;28;45682;-81
2023/07/17 12:44:19;;;;;;;;;1.00;1.00;;;;;;;;4977795;28;45857;-80
2023/07/17 12:46:45;;;;;;;;;3.00;0.00;;;;;;;;4972622;28;45531;-81
2023/07/17 12:49:11;;;;;;;;;1.00;1.00;;;;;;;;4957679;28;47058;-80
2023/07/17 12:51:37;;;;;;;;;0.00;0.00;;;;;;;;4956604;28;45508;-79
2023/07/17 12:54:02;;;;;;;;;1.25;1.00;;;;;;;;4979920;28;45502;-80
2023/07/17 12:56:27;;;;;;;;;1.50;0.00;;;;;;;;4983324;28;45576;-81
2023/07/17 12:58:53;;;;;;;;;0.00;0.00;;;;;;;;4974821;28;45443;-80
2023/07/17 13:01:21;;;;;;;;;1.00;0.25;;;;;;;;4978988;28;45559;-81
2023/07/17 13:03:46;;;;;;;;;0.00;0.00;;;;;;;;4975262;28;46816;-79
2023/07/17 13:06:11;;;;;;;;;1.50;0.00;;;;;;;;4976413;28;45345;-79
2023/07/17 13:08:37;;;;;;;;;1.75;1.00;;;;;;;;4974398;28;46221;-80
2023/07/17 13:11:02;;;;;;;;;0.00;0.00;;;;;;;;4975003;28;45827;-80
2023/07/17 13:13:28;;;;;;;;;2.00;0.00;;;;;;;;4992845;28;45822;-78
2023/07/17 13:15:53;;;;;;;;;0.00;0.00;;;;;;;;4965652;28;45805;-79
2023/07/17 13:18:18;;;;;;;;;0.00;0.00;;;;;;;;4974857;28;45410;-79
2023/07/17 13:20:44;;;;;;;;;0.75;0.75;;;;;;;;4974179;28;45468;-81
2023/07/17 13:23:09;;;;;;;;;0.00;0.00;;;;;;;;4972996;28;45797;-79
2023/07/17 13:25:34;;;;;;;;;1.25;0.50;;;;;;;;4968708;28;45401;-80
2023/07/17 13:28:00;;;;;;;;;0.00;0.00;;;;;;;;4970407;28;46353;-81
2023/07/17 13:30:25;;;;;;;;;0.00;0.00;;;;;;;;4967012;28;45582;-81
2023/07/17 13:32:52;;;;;;;;;1.00;1.00;;;;;;;;4971250;28;45332;-82
2023/07/17 13:35:17;;;;;;;;;0.25;0.25;;;;;;;;4970083;28;45875;-80
2023/07/17 13:37:43;;;;;;;;;1.00;1.00;;;;;;;;4957198;28;45884;-82
2023/07/17 13:40:08;;;;;;;;;2.50;1.50;;;;;;;;4968929;28;45717;-81
2023/07/17 13:42:34;;;;;;;;;0.25;0.25;;;;;;;;4967539;28;46035;-81
2023/07/17 13:44:59;;;;;;;;;0.50;0.50;;;;;;;;4962616;28;45938;-82
2023/07/17 13:47:26;;;;;;;;;1.50;1.00;;;;;;;;4954783;28;47303;-80
2023/07/17 13:49:51;;;;;;;;;2.00;1.00;;;;;;;;4965433;28;45496;-80
2023/07/17 13:52:16;;;;;;;;;0.75;0.00;;;;;;;;4957996;28;45779;-80
2023/07/17 13:54:41;;;;;;;;;3.50;1.00;;;;;;;;4974191;28;45409;-80
2023/07/17 13:57:07;;;;;;;;;1.00;1.00;;;;;;;;4956400;28;48096;-80
2023/07/17 13:59:32;;;;;;;;;0.75;0.75;;;;;;;;4972346;28;45419;-81
2023/07/17 14:01:57;;;;;;;;;1.50;0.75;;;;;;;;4963894;28;45588;-81
2023/07/17 14:04:23;;;;;;;;;3.75;1.00;;;;;;;;4956913;28;45732;-81
2023/07/17 14:06:48;;;;;;;;;1.00;1.00;;;;;;;;4961488;28;45819;-81
2023/07/17 14:09:13;;;;;;;;;1.25;1.25;;;;;;;;4946887;28;46109;-80
2023/07/17 14:11:40;;;;;;;;;2.00;1.25;;;;;;;;4973396;28;45380;-83
2023/07/17 14:14:08;;;;;;;;;2.25;1.00;;;;;;;;4982145;28;45586;-88
2023/07/17 14:16:34;;;;;;;;;2.00;2.00;;;;;;;;4964105;28;47080;-82
2023/07/17 14:19:00;;;;;;;;;1.00;1.00;;;;;;;;4978197;28;45451;-82
2023/07/17 14:21:25;;;;;;;;;2.50;1.00;;;;;;;;4979868;28;45574;-81
2023/07/17 14:23:51;;;;;;;;;1.00;1.00;;;;;;;;4996933;28;45416;-81
2023/07/17 14:26:16;;;;;;;;;2.00;1.00;;;;;;;;4962529;28;46032;-80
2023/07/17 14:28:41;;;;;;;;;0.25;0.25;;;;;;;;4972582;28;45853;-81
2023/07/17 14:31:07;;;;;;;;;2.50;2.50;;;;;;;;4977193;28;45452;-81
2023/07/17 14:33:32;;;;;;;;;2.50;2.50;;;;;;;;4977737;28;45440;-79